Bar Harbor, ME (04609)

9:48 PM EDT on July 03, 2015 (GMT -0400)
College of the Atlantic | | Change Station
CLOSE
Current Station
Personal Weather Station
Location: Bar Harbor, ME
Elevation: 52 ft
Nearby Weather Stations

Elev 52 ft 44.39 °N, 68.22 °W | Updated 50 seconds ago

Clear
Clear
65.7 °F
Feels Like 65.7 °F
N
3.3
Wind Variable Wind from SSW
Gusts 5.0 mph

Today
High -- | Low -- °F
--% Chance of Precip.
Yesterday
High -- | Low -- °F
Precip. -- in
4:53 AM 8:20 PM
Waning Gibbous, 95% visible
Pressure 29.95 in
Visibility 10.0 miles
Clouds Clear
Dew Point 50 °F
Humidity 59%
Rainfall 0.00 in
Snow Depth Not available.
UV 0 out of 12
Pollen 4.90 out of 12
Air Quality Not available.
Flu Activity Not available.
METAR KBHB 040135Z AUTO 22006KT 10SM CLR 18/12 A2995 RMK AO1

More Conditions Fewer Conditions

Pressure 29.95 in
Visibility 10.0 miles
Clouds Clear
Dew Point 50 °F
Humidity 59%
Rainfall 0.00 in
Snow Depth Not available.
UV 0 out of 12
Pollen 4.90 out of 12
Air Quality Not available.
Flu Activity Not available.
METAR KBHB 040135Z AUTO 22006KT 10SM CLR 18/12 A2995 RMK AO1

More Conditions Fewer Conditions

10-Day Weather Forecast

×

Almanac

Astronomy

Jul. 03, 2015 Rise Set
Actual Time
Civil Twilight
Nautical Twilight
Astronomical Twilight
Moon
Length of Visible Light
Length of Day
Tomorrow will be .
, % of the Moon is Illuminated

Today's Extremes

State Highs State Lows

Community

WunderPhotos

Upload Photos

1,834,868 photos uploaded!

WunderBlogs® & News

Nearby

Air Quality

  Air Quality AQ Index Pollutant
Not available.

Snow Depth

Station Depth Elevation

Earthquake Activity

City Distance Mag. Time & Date
Minimum magnitude displayed is 2.5.

Coastal Water Temperatures

Place Temperature

Stations

Nearby Weather Stations

Station Location Temp. Windchill Dew Point Humidity Wind Precip. Elev Updated Type